Charter Quote
Worldwide +1-877-727-2538 Call
Select Language Lang
SAFETY RELIABILITY EXPERIENCE

Plymouth Muni Airport (KPYM) - Jet Charter Services

AIRPORT INFORMATION
ICAOKPYM
IATAPYM
LOCATIONPlymouth, MA, United States
FACILITY TYPEAIRPORT

At Paramount Business Jets you can hire chartered private jets to and from Plymouth Muni Airport with as little as 4 hours of notice. All flights booked via Paramount Business Jets are operated by certified direct air carriers that meet and exceed the FAA part 135 and 121 protocol or a foreign equivalent safety authority. Furthermore, Paramount Business Jets subscribes to ARGUS for their third party safety checks of operators, aircraft, and crews prior each and every flight to and from Plymouth Muni Airport and worldwide.

  • Quote a trip using Plymouth Muni Airport or call us 24/7 - 365 days a year at +1-877-727-2538.
Questions? Call +1-877-727-2538

METAR Weather Data at Plymouth Muni Airport, KPYM, PYM

STATIONKPYM
OBSERVEDSat Feb 23, 14:52 UTC
NOWSat Feb 23, 15:25 UTC
AGE33 min ago
WINDNNE at 5 mph
VISIBILITY10 miles
CLOUDSclear skies
TEMP36°F (2°C)
WIND CHILL32°F (0°C)
DEWPT25°F (-4°C)
HUMIDITY65%
BAROMETER1032 hPa (30.48 in Hg)
METARKPYM 231452Z AUTO 02004KT 10SM CLR 02/M04 A3048 RMK AO2 SLP324 T00171044 50000

Call us on +1-877-727-2538 (24 Hours) to Hire a Private Jet or Get a Quick Quote.

Find Airports Near any Location

Processing
...